Time;durP1;ratioP1;P1;durP2;ratioP2;P2;SDS_P1;SDS_P2;PMS_P1;PMS_P2;Temp;Humidity;BMP_temperature;BMP_pressure;BME280_temperature;BME280_humidity;BME280_pressure;Samples;Min_cycle;Max_cycle;Signal;HPM_P1;HPM_P2
2023/02/15 00:01:52;;;;;;;29.58;12.70;;;2.10;99.90;;;;;;5013091;28;20053;-76
2023/02/15 00:04:20;;;;;;;24.92;11.43;;;2.10;99.90;;;;;;5014253;28;20033;-76
2023/02/15 00:06:48;;;;;;;29.77;11.57;;;2.20;99.90;;;;;;5014180;28;20388;-76
2023/02/15 00:09:15;;;;;;;27.63;11.35;;;2.10;99.90;;;;;;5014110;28;20408;-76
2023/02/15 00:11:49;;;;;;;28.95;11.75;;;2.10;99.90;;;;;;5013474;28;20543;-76
2023/02/15 00:14:21;;;;;;;27.48;11.57;;;2.10;99.90;;;;;;5013516;28;20153;-76
2023/02/15 00:16:48;;;;;;;26.48;10.60;;;2.00;99.90;;;;;;5013297;28;20175;-76
2023/02/15 00:19:15;;;;;;;28.27;11.55;;;2.00;99.90;;;;;;5014753;28;20028;-76
2023/02/15 00:21:41;;;;;;;24.10;10.35;;;1.90;99.90;;;;;;5014039;28;20436;-76
2023/02/15 00:24:11;;;;;;;27.98;11.20;;;1.90;99.90;;;;;;5016302;28;20026;-76
2023/02/15 00:26:41;;;;;;;27.65;11.60;;;1.70;99.90;;;;;;5016555;28;20057;-75
2023/02/15 00:29:08;;;;;;;26.33;11.43;;;1.90;99.90;;;;;;5018255;28;20388;-75
2023/02/15 00:31:35;;;;;;;26.17;10.70;;;1.90;99.90;;;;;;5017833;28;20448;-75
2023/02/15 00:34:05;;;;;;;30.30;11.50;;;1.80;99.90;;;;;;5017756;28;20492;-75
2023/02/15 00:36:32;;;;;;;23.30;11.00;;;1.90;99.90;;;;;;5018055;28;20516;-75
2023/02/15 00:39:00;;;;;;;28.90;12.50;;;1.80;99.90;;;;;;5017751;28;20032;-75
2023/02/15 00:41:28;;;;;;;22.80;11.13;;;1.80;99.90;;;;;;5016474;28;20025;-75
2023/02/15 00:43:54;;;;;;;24.20;10.80;;;1.80;99.90;;;;;;5017111;28;20413;-75
2023/02/15 00:46:19;;;;;;;27.48;10.85;;;1.80;99.90;;;;;;5017733;28;20026;-75
2023/02/15 00:48:45;;;;;;;26.70;10.93;;;1.70;99.90;;;;;;5018125;28;20152;-75
2023/02/15 00:51:11;;;;;;;29.15;11.85;;;1.80;99.90;;;;;;5017855;28;20473;-75
2023/02/15 00:53:39;;;;;;;29.02;11.73;;;1.70;99.90;;;;;;5017595;28;20025;-75
2023/02/15 00:56:05;;;;;;;26.55;11.98;;;1.70;99.90;;;;;;5016434;28;20108;-75
2023/02/15 00:58:33;;;;;;;30.88;11.95;;;1.70;99.90;;;;;;5017265;28;20062;-75
2023/02/15 01:01:08;;;;;;;24.77;10.23;;;1.70;99.90;;;;;;5015912;28;20026;-75
2023/02/15 01:03:34;;;;;;;28.40;10.90;;;1.70;99.90;;;;;;5017173;28;20045;-75
2023/02/15 01:06:04;;;;;;;29.25;11.23;;;1.70;99.90;;;;;;5017012;28;20022;-75
2023/02/15 01:08:30;;;;;;;29.85;12.15;;;1.90;99.90;;;;;;5015496;28;20492;-76
2023/02/15 01:10:56;;;;;;;26.33;11.63;;;1.60;99.90;;;;;;5017469;28;20105;-76
2023/02/15 01:13:22;;;;;;;29.20;11.57;;;1.60;99.90;;;;;;5016000;28;20053;-76
2023/02/15 01:15:57;;;;;;;29.42;12.63;;;1.60;99.90;;;;;;5015849;28;20108;-76
2023/02/15 01:18:23;;;;;;;31.88;12.60;;;1.60;99.90;;;;;;5017246;28;20034;-76
2023/02/15 01:20:49;;;;;;;32.30;12.25;;;1.50;99.90;;;;;;5016979;28;20444;-75
2023/02/15 01:23:17;;;;;;;29.23;12.07;;;1.50;99.90;;;;;;5015819;28;20029;-75
2023/02/15 01:25:45;;;;;;;28.63;11.98;;;1.50;99.90;;;;;;5016863;28;20515;-75
2023/02/15 01:28:10;;;;;;;29.63;11.93;;;1.60;99.90;;;;;;5016788;28;20030;-75
2023/02/15 01:30:36;;;;;;;27.65;12.07;;;1.80;99.90;;;;;;5015436;28;20057;-76
2023/02/15 01:33:02;;;;;;;27.13;11.15;;;1.50;99.90;;;;;;5015583;28;20052;-76
2023/02/15 01:35:31;;;;;;;27.38;12.15;;;1.60;99.90;;;;;;5014557;28;20493;-76
2023/02/15 01:37:59;;;;;;;28.63;11.98;;;1.50;99.90;;;;;;5017076;28;20101;-76
2023/02/15 01:40:27;;;;;;;27.40;12.25;;;1.50;99.90;;;;;;5015342;28;20499;-76
2023/02/15 01:42:55;;;;;;;25.27;11.05;;;1.40;99.90;;;;;;5015460;28;20029;-76
2023/02/15 01:45:29;;;;;;;29.10;11.80;;;1.40;99.90;;;;;;5015800;28;20088;-76
2023/02/15 01:48:14;;;;;;;28.35;11.70;;;1.40;99.90;;;;;;5015179;28;20022;-76
2023/02/15 01:50:50;;;;;;;26.52;10.70;;;1.30;99.90;;;;;;5031840;28;20030;-76
2023/02/15 01:53:22;;;;;;;29.08;11.95;;;1.20;99.90;;;;;;5015337;28;20022;-76
2023/02/15 01:55:58;;;;;;;26.85;11.02;;;1.20;99.90;;;;;;5016895;28;20026;-76
2023/02/15 01:58:27;;;;;;;27.42;11.00;;;1.20;99.90;;;;;;5016423;28;20030;-76
2023/02/15 02:00:57;;;;;;;32.15;11.70;;;1.20;99.90;;;;;;5016325;28;20025;-76
2023/02/15 02:03:46;;;;;;;29.50;11.27;;;1.20;99.90;;;;;;5015399;28;20551;-76
2023/02/15 02:06:12;;;;;;;29.05;12.20;;;1.40;99.90;;;;;;5024779;28;20042;-76
2023/02/15 02:08:41;;;;;;;32.30;11.60;;;1.10;99.90;;;;;;5030508;28;20026;-76
2023/02/15 02:11:14;;;;;;;29.83;12.85;;;1.10;99.90;;;;;;5014970;28;20049;-76
2023/02/15 02:13:41;;;;;;;33.20;13.05;;;1.20;99.90;;;;;;5014742;28;20076;-76
2023/02/15 02:16:27;;;;;;;31.20;13.20;;;1.30;99.90;;;;;;5015939;28;20473;-76
2023/02/15 02:19:12;;;;;;;32.08;13.43;;;1.50;99.90;;;;;;5014751;28;20025;-75
2023/02/15 02:21:53;;;;;;;30.80;11.77;;;1.60;99.90;;;;;;5014213;28;20022;-77
2023/02/15 02:24:53;;;;;;;33.40;12.88;;;1.60;99.90;;;;;;5039973;22;20141;-76
2023/02/15 02:27:39;;;;;;;30.95;11.77;;;1.70;99.90;;;;;;5034210;28;20040;-76
2023/02/15 02:30:37;;;;;;;32.72;12.45;;;1.70;99.90;;;;;;5034031;28;20037;-76
2023/02/15 02:33:24;;;;;;;29.80;10.77;;;1.60;99.90;;;;;;4982923;28;20504;-76
2023/02/15 02:36:11;;;;;;;29.30;12.00;;;1.50;99.90;;;;;;5015440;28;20022;-76
2023/02/15 02:38:48;;;;;;;28.38;11.70;;;1.50;99.90;;;;;;5015039;28;20064;-76
2023/02/15 02:41:16;;;;;;;29.17;12.85;;;1.50;99.90;;;;;;5014792;28;20077;-76
2023/02/15 02:43:51;;;;;;;32.42;12.70;;;1.50;99.90;;;;;;5013913;28;20040;-76
2023/02/15 02:46:27;;;;;;;32.65;11.65;;;1.50;99.90;;;;;;5015248;28;20064;-76
2023/02/15 02:48:54;;;;;;;30.23;12.52;;;1.50;99.90;;;;;;5015126;28;20018;-76
2023/02/15 02:51:21;;;;;;;28.83;12.07;;;1.50;99.90;;;;;;5015907;28;20025;-76
2023/02/15 02:53:56;;;;;;;30.17;12.38;;;1.40;99.90;;;;;;5014303;28;20024;-76
2023/02/15 02:56:37;;;;;;;29.73;10.25;;;1.40;99.90;;;;;;5016386;28;20033;-76
2023/02/15 02:59:24;;;;;;;29.13;12.00;;;1.30;99.90;;;;;;5014435;28;20032;-76
2023/02/15 03:02:00;;;;;;;29.63;12.82;;;1.20;99.90;;;;;;5015547;28;20029;-76
2023/02/15 03:04:32;;;;;;;32.58;12.13;;;1.30;99.90;;;;;;5016025;28;20032;-76
2023/02/15 03:07:02;;;;;;;33.35;12.93;;;1.30;99.90;;;;;;5014259;28;20508;-76
2023/02/15 03:09:42;;;;;;;30.90;11.70;;;1.20;99.90;;;;;;5014185;28;20022;-76
2023/02/15 03:12:44;;;;;;;29.23;11.90;;;1.20;99.90;;;;;;5015263;28;20025;-76
2023/02/15 03:16:25;;;;;;;33.60;12.45;;;1.20;99.90;;;;;;4982072;28;20160;-76
2023/02/15 03:18:20;;;;;;;34.75;12.02;;;1.10;99.90;;;;;;5014340;28;20037;-76
2023/02/15 03:20:47;;;;;;;32.85;12.38;;;1.20;99.90;;;;;;5015505;28;20484;-76
2023/02/15 03:23:20;;;;;;;31.77;11.57;;;1.20;99.90;;;;;;5013763;28;20033;-76
2023/02/15 03:26:02;;;;;;;31.45;13.38;;;1.10;99.90;;;;;;5013774;28;20080;-76
2023/02/15 03:28:43;;;;;;;30.73;11.65;;;1.10;99.90;;;;;;5013798;28;20480;-76
2023/02/15 03:31:11;;;;;;;29.58;11.75;;;1.10;99.90;;;;;;5015349;28;20026;-76
2023/02/15 03:33:49;;;;;;;33.17;13.10;;;1.10;99.90;;;;;;5015748;28;20089;-76
2023/02/15 03:36:26;;;;;;;27.88;10.90;;;1.10;99.90;;;;;;5015188;28;20544;-76
2023/02/15 03:39:07;;;;;;;32.72;12.57;;;1.00;99.90;;;;;;5014346;28;20021;-76
2023/02/15 03:41:40;;;;;;;33.47;12.73;;;1.00;99.90;;;;;;5014241;28;20428;-76
2023/02/15 03:44:17;;;;;;;34.53;12.88;;;1.10;99.90;;;;;;5015081;28;20026;-76
2023/02/15 03:46:48;;;;;;;33.22;11.88;;;1.20;99.90;;;;;;5013994;28;20053;-76
2023/02/15 03:49:24;;;;;;;30.10;12.02;;;1.20;99.90;;;;;;5015082;28;20072;-76
2023/02/15 03:51:53;;;;;;;35.90;13.50;;;1.30;99.90;;;;;;5013332;28;20121;-76
2023/02/15 03:54:42;;;;;;;31.42;12.45;;;1.30;99.90;;;;;;5013561;28;20492;-76
2023/02/15 04:03:08;;;;;;;34.05;13.60;;;1.40;99.90;;;;;;5019242;28;20041;-76
2023/02/15 04:05:37;;;;;;;31.90;13.32;;;1.50;99.90;;;;;;5018895;28;20029;-76
2023/02/15 04:08:04;;;;;;;34.85;13.70;;;1.50;99.90;;;;;;5017362;28;20021;-76
2023/02/15 04:13:14;;;;;;;32.90;13.18;;;1.50;99.90;;;;;;5019661;28;20029;-76
2023/02/15 04:26:36;;;;;;;32.78;12.60;;;1.60;99.90;;;;;;5019246;28;20427;-76
2023/02/15 04:29:02;;;;;;;34.88;13.15;;;1.60;99.90;;;;;;5018396;28;20026;-76
2023/02/15 04:31:28;;;;;;;36.30;13.32;;;1.60;99.90;;;;;;5018302;28;20500;-76
2023/02/15 04:34:00;;;;;;;33.90;13.35;;;1.60;99.90;;;;;;5017097;28;20014;-76
2023/02/15 04:36:25;;;;;;;35.22;13.95;;;1.60;99.90;;;;;;5016693;28;20400;-76
2023/02/15 04:38:51;;;;;;;30.17;13.10;;;1.60;99.90;;;;;;5017142;28;20021;-76
2023/02/15 04:41:17;;;;;;;36.30;12.70;;;1.60;99.90;;;;;;5017561;28;20472;-76
2023/02/15 04:43:42;;;;;;;34.92;12.63;;;1.60;99.90;;;;;;5018198;28;20109;-76
2023/02/15 04:46:08;;;;;;;34.03;12.68;;;1.60;99.90;;;;;;5018028;28;20484;-76
2023/02/15 04:48:33;;;;;;;34.97;13.23;;;1.60;99.90;;;;;;5016592;28;20477;-76
2023/02/15 04:50:59;;;;;;;30.10;12.57;;;1.60;99.90;;;;;;5017327;28;20080;-76
2023/02/15 04:53:24;;;;;;;30.17;12.88;;;1.60;99.90;;;;;;5018150;28;20053;-76
2023/02/15 04:55:50;;;;;;;35.15;13.18;;;1.60;99.90;;;;;;5017856;28;20531;-76
2023/02/15 04:58:15;;;;;;;33.08;12.65;;;1.70;99.90;;;;;;5017615;28;20563;-76
2023/02/15 05:00:41;;;;;;;29.58;12.27;;;1.70;99.90;;;;;;5018228;28;20065;-76
2023/02/15 05:03:07;;;;;;;32.20;12.70;;;1.70;99.90;;;;;;5017889;28;20101;-76
2023/02/15 05:05:32;;;;;;;33.15;13.15;;;1.60;99.90;;;;;;5016738;28;20079;-76
2023/02/15 05:07:58;;;;;;;32.53;12.88;;;1.60;99.90;;;;;;5016351;28;20022;-76
2023/02/15 05:10:23;;;;;;;28.75;12.48;;;1.60;99.90;;;;;;5016282;28;20018;-76
2023/02/15 05:12:49;;;;;;;35.30;13.27;;;1.60;99.90;;;;;;5016036;28;20025;-76
2023/02/15 05:15:18;;;;;;;27.15;11.32;;;1.70;99.90;;;;;;5017108;28;20093;-76
2023/02/15 05:17:43;;;;;;;30.85;13.50;;;1.70;99.90;;;;;;5016010;28;20040;-76
2023/02/15 05:20:09;;;;;;;29.90;13.52;;;1.60;99.90;;;;;;5015136;28;20481;-76
2023/02/15 05:22:35;;;;;;;32.47;11.85;;;1.70;99.90;;;;;;5017070;28;20057;-76
2023/02/15 05:30:29;;;;;;;31.25;11.77;;;1.70;99.90;;;;;;5017591;28;20100;-76
2023/02/15 05:32:54;;;;;;;31.80;13.00;;;1.70;99.90;;;;;;5017033;28;20026;-76
2023/02/15 05:35:20;;;;;;;32.17;12.48;;;1.70;99.90;;;;;;5015855;28;20109;-76
2023/02/15 05:37:46;;;;;;;32.30;12.90;;;1.60;99.90;;;;;;5015479;28;20033;-76
2023/02/15 05:40:11;;;;;;;35.03;12.30;;;1.60;99.90;;;;;;5016499;28;20096;-76
2023/02/15 05:42:37;;;;;;;31.98;13.30;;;1.60;99.90;;;;;;5016329;28;20029;-76
2023/02/15 05:45:03;;;;;;;31.88;12.65;;;1.60;99.90;;;;;;5016398;28;20473;-76
2023/02/15 05:47:29;;;;;;;29.13;11.52;;;1.60;99.90;;;;;;5015254;28;20053;-76
2023/02/15 05:49:54;;;;;;;31.40;12.63;;;1.60;99.90;;;;;;5015152;28;20025;-76
2023/02/15 05:52:20;;;;;;;28.75;12.27;;;1.60;99.90;;;;;;5015003;28;20037;-76
2023/02/15 05:54:46;;;;;;;29.88;12.32;;;1.60;99.90;;;;;;5014575;28;20041;-76
2023/02/15 05:57:11;;;;;;;30.75;12.18;;;1.60;99.90;;;;;;5015759;28;20049;-76
2023/02/15 05:59:37;;;;;;;26.17;11.93;;;1.60;99.90;;;;;;5015030;28;20385;-76
2023/02/15 06:02:02;;;;;;;29.83;12.45;;;1.60;99.90;;;;;;5016254;28;20028;-76
2023/02/15 06:04:28;;;;;;;31.55;13.05;;;1.60;99.90;;;;;;5014851;28;20022;-76
2023/02/15 06:06:53;;;;;;;31.33;12.10;;;1.50;99.90;;;;;;5015983;28;20488;-76
2023/02/15 06:09:19;;;;;;;34.70;12.45;;;1.50;99.90;;;;;;5014757;28;20160;-76
2023/02/15 06:11:45;;;;;;;30.38;12.15;;;1.50;99.90;;;;;;5015834;28;20026;-76
2023/02/15 06:14:11;;;;;;;28.67;12.43;;;1.50;99.90;;;;;;5014595;28;20026;-76
2023/02/15 06:16:36;;;;;;;31.23;12.15;;;1.50;99.90;;;;;;5015661;28;20100;-76
2023/02/15 06:19:03;;;;;;;31.08;12.00;;;1.50;99.90;;;;;;5014559;28;20399;-76
2023/02/15 06:21:29;;;;;;;34.92;12.77;;;1.50;99.90;;;;;;5014305;28;20030;-76
2023/02/15 06:23:55;;;;;;;34.40;11.77;;;1.50;99.90;;;;;;5013768;28;20037;-76
2023/02/15 06:26:20;;;;;;;30.42;11.88;;;1.40;99.90;;;;;;5014098;28;20032;-76
2023/02/15 06:28:46;;;;;;;28.73;11.32;;;1.40;99.90;;;;;;5014226;28;20361;-76
2023/02/15 06:31:11;;;;;;;28.27;11.38;;;1.40;99.90;;;;;;5015349;28;20022;-76
2023/02/15 06:33:38;;;;;;;30.35;11.27;;;1.40;99.90;;;;;;5015883;28;20025;-76
2023/02/15 06:36:03;;;;;;;34.97;11.52;;;1.40;99.90;;;;;;5014287;28;20030;-77
2023/02/15 06:38:29;;;;;;;35.80;12.70;;;1.40;99.90;;;;;;5015698;28;20507;-76
2023/02/15 06:40:55;;;;;;;28.55;11.30;;;1.40;99.90;;;;;;5015954;28;20439;-76
2023/02/15 06:43:21;;;;;;;30.52;11.45;;;1.50;99.90;;;;;;5015836;28;20030;-76
2023/02/15 06:45:46;;;;;;;30.17;12.18;;;1.40;99.90;;;;;;5015795;28;20374;-76
2023/02/15 06:48:12;;;;;;;31.92;11.48;;;1.40;99.90;;;;;;5015423;28;20033;-76
2023/02/15 06:50:39;;;;;;;31.38;13.55;;;1.50;99.90;;;;;;5015432;28;20018;-76
2023/02/15 06:53:04;;;;;;;32.85;12.65;;;1.40;99.90;;;;;;5014777;28;20109;-76
2023/02/15 06:55:30;;;;;;;33.85;11.88;;;1.40;99.90;;;;;;5013854;28;20053;-76
2023/02/15 06:57:56;;;;;;;27.65;11.60;;;1.40;99.90;;;;;;5015424;28;20033;-76
2023/02/15 07:00:23;;;;;;;31.50;12.50;;;1.40;99.90;;;;;;5015248;28;20052;-76
2023/02/15 07:02:55;;;;;;;28.98;11.63;;;1.30;99.90;;;;;;5013844;28;20493;-76
2023/02/15 07:05:22;;;;;;;33.03;12.43;;;1.30;99.90;;;;;;5015157;28;20384;-75
2023/02/15 07:07:48;;;;;;;32.75;12.93;;;1.40;99.90;;;;;;5013651;28;20378;-76
2023/02/15 07:10:13;;;;;;;34.50;12.55;;;1.40;99.90;;;;;;5030259;28;20025;-76
2023/02/15 07:12:42;;;;;;;31.05;11.95;;;1.40;99.90;;;;;;5013601;28;20392;-77
2023/02/15 07:15:16;;;;;;;37.10;12.48;;;1.40;99.90;;;;;;5013505;28;20018;-75
2023/02/15 07:17:43;;;;;;;34.30;12.55;;;1.40;99.90;;;;;;5017408;28;20041;-76
2023/02/15 07:20:15;;;;;;;30.85;12.20;;;1.40;99.90;;;;;;5013666;28;20052;-76
2023/02/15 07:22:40;;;;;;;28.45;11.98;;;1.50;99.90;;;;;;5014864;28;20100;-76
2023/02/15 07:25:08;;;;;;;32.08;12.45;;;1.50;99.90;;;;;;5013613;28;20096;-76
2023/02/15 07:27:35;;;;;;;34.87;12.33;;;1.50;99.90;;;;;;5012662;28;20488;-76
2023/02/15 07:30:01;;;;;;;31.23;12.88;;;1.50;99.90;;;;;;5014561;28;20022;-76
2023/02/15 07:32:30;;;;;;;33.22;12.95;;;1.50;99.90;;;;;;5012628;28;20045;-76
2023/02/15 07:34:56;;;;;;;38.80;13.60;;;1.60;99.90;;;;;;5014662;28;20014;-76
2023/02/15 07:37:22;;;;;;;35.47;12.82;;;1.60;99.90;;;;;;5013422;28;20374;-76
2023/02/15 07:39:47;;;;;;;36.30;12.13;;;1.70;99.90;;;;;;5013339;28;20549;-76
2023/02/15 07:42:13;;;;;;;28.98;12.00;;;1.70;99.90;;;;;;5013111;28;20504;-76
2023/02/15 07:44:39;;;;;;;34.10;13.55;;;1.80;99.90;;;;;;5013199;28;20071;-76
2023/02/15 07:47:04;;;;;;;33.25;13.30;;;1.90;99.90;;;;;;5012973;28;20072;-76
2023/02/15 07:49:30;;;;;;;36.80;12.75;;;1.90;99.90;;;;;;5013320;28;20019;-75
2023/02/15 07:51:55;;;;;;;32.28;12.50;;;1.90;99.90;;;;;;5014344;28;20436;-76
2023/02/15 07:54:21;;;;;;;32.88;12.20;;;2.00;99.90;;;;;;5013165;28;20018;-76
2023/02/15 07:56:46;;;;;;;31.63;13.30;;;2.00;99.90;;;;;;5012529;28;20021;-76
2023/02/15 07:59:12;;;;;;;29.90;12.73;;;2.00;99.90;;;;;;5014250;28;20026;-76
2023/02/15 08:01:39;;;;;;;30.60;12.50;;;2.10;99.90;;;;;;5012838;28;20030;-76
2023/02/15 08:04:06;;;;;;;34.15;13.85;;;2.10;99.90;;;;;;5012995;28;20030;-76
2023/02/15 08:06:34;;;;;;;34.97;13.80;;;2.20;99.90;;;;;;5012754;28;20018;-76
2023/02/15 08:09:02;;;;;;;36.60;13.37;;;2.20;99.90;;;;;;5012695;28;20034;-76
2023/02/15 08:11:33;;;;;;;36.13;13.33;;;2.30;99.90;;;;;;5013950;28;20034;-76
2023/02/15 08:14:06;;;;;;;33.67;14.07;;;2.30;99.90;;;;;;5014910;28;20033;-76
2023/02/15 08:16:48;;;;;;;35.13;12.82;;;2.40;99.90;;;;;;5014998;28;20021;-76
2023/02/15 08:19:20;;;;;;;35.35;13.60;;;2.40;99.90;;;;;;5014480;28;20054;-76
2023/02/15 08:21:49;;;;;;;33.47;14.00;;;2.50;99.90;;;;;;5015023;28;20373;-76
2023/02/15 08:24:18;;;;;;;35.95;13.13;;;2.60;99.90;;;;;;5013378;28;20071;-76
2023/02/15 08:26:47;;;;;;;35.05;14.50;;;2.80;99.90;;;;;;5014819;28;20026;-76
2023/02/15 08:29:14;;;;;;;34.53;14.32;;;2.90;99.90;;;;;;5014194;28;20481;-76
2023/02/15 08:31:41;;;;;;;29.45;13.20;;;3.00;99.90;;;;;;5014140;28;20025;-76
2023/02/15 08:34:08;;;;;;;33.50;13.15;;;3.00;99.90;;;;;;5013101;28;20026;-76
2023/02/15 08:36:34;;;;;;;38.63;14.98;;;3.00;99.90;;;;;;5012181;28;20061;-76
2023/02/15 08:39:03;;;;;;;37.38;13.23;;;3.10;99.90;;;;;;5013878;28;20404;-76
2023/02/15 08:41:31;;;;;;;30.60;14.13;;;3.20;99.90;;;;;;5012948;28;20108;-76
2023/02/15 08:43:58;;;;;;;;;;;3.30;99.90;;;;;;5015849;28;20022;-76
2023/02/15 08:46:26;;;;;;;33.25;13.70;;;4.20;99.90;;;;;;5016567;28;20376;-76
2023/02/15 08:48:52;;;;;;;36.05;14.32;;;3.50;99.90;;;;;;5016342;28;20045;-76
2023/02/15 08:51:23;;;;;;;34.05;14.23;;;3.50;99.90;;;;;;5017462;28;20448;-76
2023/02/15 08:53:51;;;;;;;30.25;13.52;;;3.60;99.90;;;;;;5017446;28;20105;-76
2023/02/15 08:56:19;;;;;;;37.58;14.07;;;3.70;99.90;;;;;;5016687;28;20072;-76
2023/02/15 08:58:45;;;;;;;32.17;14.32;;;3.70;99.90;;;;;;5017338;28;20037;-76
2023/02/15 09:01:14;;;;;;;36.92;13.88;;;3.80;99.90;;;;;;5017688;28;20022;-76
2023/02/15 09:03:39;;;;;;;37.58;14.43;;;3.90;99.90;;;;;;5017387;28;20489;-76
2023/02/15 09:06:05;;;;;;;33.95;14.07;;;4.00;99.90;;;;;;5017587;28;20033;-76
2023/02/15 09:08:31;;;;;;;34.70;14.23;;;4.00;99.90;;;;;;5017572;28;20037;-76
2023/02/15 09:11:22;;;;;;;35.85;14.98;;;4.10;99.90;;;;;;5017069;28;20022;-76
2023/02/15 09:13:49;;;;;;;34.50;13.63;;;4.20;99.90;;;;;;5017869;28;20018;-77
2023/02/15 09:16:16;;;;;;;35.20;12.68;;;4.30;99.90;;;;;;5015686;28;20033;-76
2023/02/15 09:18:42;;;;;;;34.90;14.05;;;4.40;99.90;;;;;;5016947;28;20029;-76
2023/02/15 09:21:17;;;;;;;39.97;15.07;;;4.50;99.90;;;;;;5015749;28;20030;-76
2023/02/15 09:23:45;;;;;;;33.42;14.23;;;4.60;99.90;;;;;;5017100;28;20041;-76
2023/02/15 09:26:13;;;;;;;33.20;14.65;;;4.60;99.90;;;;;;5017872;28;20082;-76
2023/02/15 09:28:39;;;;;;;34.38;14.52;;;4.70;99.90;;;;;;5016025;28;20060;-76
2023/02/15 09:31:09;;;;;;;37.60;13.90;;;4.80;99.90;;;;;;5016175;28;20473;-76
2023/02/15 09:33:36;;;;;;;34.72;15.15;;;4.80;99.90;;;;;;5015708;28;20037;-76
2023/02/15 09:36:02;;;;;;;35.33;15.05;;;4.80;99.90;;;;;;5015667;28;20500;-76
2023/02/15 09:38:28;;;;;;;38.42;15.05;;;4.90;99.90;;;;;;5015740;28;20500;-76
2023/02/15 09:41:36;;;;;;;33.10;14.10;;;4.90;99.90;;;;;;5016812;28;20022;-76
2023/02/15 09:44:32;;;;;;;34.20;14.82;;;4.90;99.90;;;;;;4995729;28;20049;-76
2023/02/15 09:47:07;;;;;;;39.97;15.05;;;5.00;99.90;;;;;;5015318;28;20393;-76
2023/02/15 09:50:05;;;;;;;36.08;14.73;;;5.10;99.90;;;;;;5017299;28;20029;-76
2023/02/15 09:52:57;;;;;;;36.58;15.55;;;5.20;99.90;;;;;;5015601;28;20076;-76
2023/02/15 09:55:38;;;;;;;36.47;14.63;;;5.30;99.90;;;;;;5014823;28;20022;-76
2023/02/15 09:58:25;;;;;;;42.58;15.45;;;5.40;99.90;;;;;;5015408;28;20034;-76
2023/02/15 10:01:38;;;;;;;45.45;15.32;;;5.40;99.90;;;;;;5016366;28;20049;-76
2023/02/15 10:04:18;;;;;;;39.50;15.45;;;5.50;99.90;;;;;;4982281;28;20396;-76
2023/02/15 10:06:56;;;;;;;36.42;15.60;;;5.70;99.90;;;;;;5016421;28;20130;-76
2023/02/15 10:09:43;;;;;;;39.65;14.65;;;5.90;99.90;;;;;;5014529;28;20492;-77
2023/02/15 10:12:23;;;;;;;33.90;13.82;;;6.00;99.90;;;;;;5014751;28;20374;-77
2023/02/15 10:15:09;;;;;;;37.47;15.57;;;6.20;99.90;;;;;;5016587;28;20053;-76
2023/02/15 10:18:06;;;;;;;38.80;14.82;;;6.30;99.90;;;;;;5017082;28;20025;-76
2023/02/15 10:20:49;;;;;;;35.65;15.18;;;6.50;99.90;;;;;;5016578;28;20025;-76
2023/02/15 10:23:48;;;;;;;32.97;13.50;;;6.60;99.90;;;;;;5016294;28;20128;-77
2023/02/15 10:26:22;;;;;;;;;;;6.70;99.90;;;;;;5016113;28;20030;-76
2023/02/15 10:29:23;;;;;;;38.25;15.88;;;6.80;99.90;;;;;;5014779;28;19915;-76
2023/02/15 10:32:00;;;;;;;34.65;14.02;;;6.90;99.90;;;;;;5015973;28;20029;-76
2023/02/15 10:34:46;;;;;;;36.63;14.73;;;7.10;99.90;;;;;;5016358;28;20026;-76
2023/02/15 10:37:30;;;;;;;34.40;15.00;;;7.20;99.90;;;;;;5015575;28;20038;-76
2023/02/15 10:40:04;;;;;;;32.33;15.00;;;7.30;99.90;;;;;;5014559;28;20053;-76
2023/02/15 10:42:42;;;;;;;34.53;15.25;;;7.40;99.90;;;;;;5016049;28;20026;-77
2023/02/15 10:45:40;;;;;;;34.67;14.93;;;7.60;99.90;;;;;;5014899;28;20057;-76
2023/02/15 10:48:08;;;;;;;38.47;14.57;;;7.70;99.90;;;;;;5014603;28;20038;-76
2023/02/15 10:50:53;;;;;;;42.85;16.65;;;8.00;99.90;;;;;;5015040;28;20030;-76
2023/02/15 10:53:33;;;;;;;37.90;14.65;;;8.30;99.90;;;;;;5013693;28;20010;-76
2023/02/15 10:56:14;;;;;;;38.13;15.95;;;8.50;99.90;;;;;;5014391;28;20033;-76
2023/02/15 10:58:45;;;;;;;37.15;15.40;;;8.60;99.90;;;;;;5015050;28;20037;-76
2023/02/15 11:01:34;;;;;;;35.03;16.17;;;8.70;99.90;;;;;;5014118;28;20017;-77
2023/02/15 11:04:31;;;;;;;27.08;12.05;;;8.80;99.90;;;;;;5015142;28;20026;-76
2023/02/15 11:07:04;;;;;;;35.83;15.30;;;8.90;99.90;;;;;;5015731;28;20037;-76
2023/02/15 11:09:40;;;;;;;37.05;16.33;;;8.90;99.90;;;;;;5013083;28;20032;-76
2023/02/15 11:12:15;;;;;;;34.60;15.57;;;9.00;99.90;;;;;;5014491;28;20536;-76
2023/02/15 11:14:54;;;;;;;35.63;15.38;;;8.90;99.90;;;;;;5014867;28;20018;-76
2023/02/15 11:17:30;;;;;;;35.75;14.88;;;8.90;99.90;;;;;;5013412;28;20493;-76
2023/02/15 11:20:04;;;;;;;32.95;14.00;;;9.00;99.90;;;;;;5015035;28;20025;-76
2023/02/15 11:22:33;;;;;;;35.03;14.50;;;9.00;99.90;;;;;;5013190;28;20042;-76
2023/02/15 11:25:00;;;;;;;42.90;16.13;;;9.20;99.90;;;;;;5014305;28;20061;-76
2023/02/15 11:27:30;;;;;;;34.60;15.52;;;9.20;99.90;;;;;;5013805;28;20037;-76
2023/02/15 11:30:22;;;;;;;36.67;16.88;;;9.30;99.90;;;;;;5013931;28;20515;-76
2023/02/15 11:32:54;;;;;;;33.42;14.45;;;9.40;99.90;;;;;;5014950;28;20064;-76
2023/02/15 11:35:38;;;;;;;36.97;15.65;;;9.50;99.90;;;;;;5014809;28;20018;-76
2023/02/15 11:38:22;;;;;;;38.65;16.58;;;9.70;99.90;;;;;;5013860;28;20068;-77
2023/02/15 11:40:56;;;;;;;38.00;16.17;;;9.90;99.90;;;;;;5014810;28;20026;-76
2023/02/15 11:44:03;;;;;;;35.38;16.33;;;10.00;99.90;;;;;;5014186;28;20100;-76
2023/02/15 11:46:29;;;;;;;37.97;16.40;;;10.10;99.90;;;;;;4998163;28;20038;-76
2023/02/15 11:48:54;;;;;;;31.45;15.35;;;10.20;99.90;;;;;;5013248;28;20053;-76
2023/02/15 11:51:22;;;;;;;40.40;16.92;;;10.20;99.90;;;;;;5012959;28;20026;-76
2023/02/15 11:53:49;;;;;;;39.50;15.80;;;10.40;99.90;;;;;;5012900;28;20026;-76
2023/02/15 11:56:16;;;;;;;34.92;15.77;;;10.60;99.90;;;;;;5014625;28;20033;-76
2023/02/15 11:58:55;;;;;;;34.20;15.60;;;10.70;99.90;;;;;;5014723;28;20029;-76
2023/02/15 12:01:36;;;;;;;36.83;16.02;;;10.80;99.90;;;;;;5012812;28;20026;-76
2023/02/15 12:04:08;;;;;;;33.13;15.13;;;11.10;99.90;;;;;;5012900;28;20440;-76
2023/02/15 12:06:41;;;;;;;35.83;15.40;;;11.30;99.90;;;;;;5014200;28;20033;-76
2023/02/15 12:09:29;;;;;;;41.90;15.90;;;11.40;99.90;;;;;;5013974;28;20025;-76
2023/02/15 12:12:28;;;;;;;32.63;14.65;;;11.40;99.90;;;;;;5012339;28;20022;-77
2023/02/15 12:14:58;;;;;;;;;;;11.40;99.90;;;;;;5013121;28;20040;-77
2023/02/15 12:17:27;;;;;;;35.17;15.43;;;11.30;99.90;;;;;;5012225;28;19912;-77
2023/02/15 12:19:56;;;;;;;36.05;15.70;;;11.50;99.90;;;;;;5016740;28;20359;-76
2023/02/15 12:22:23;;;;;;;;;;;11.60;99.90;;;;;;5017954;28;20105;-76
2023/02/15 12:24:51;;;;;;;35.60;14.40;;;11.70;99.90;;;;;;5017293;28;19964;-76
2023/02/15 12:27:29;;;;;;;38.88;17.38;;;11.80;99.90;;;;;;5016303;28;20064;-76
2023/02/15 12:30:18;;;;;;;39.35;16.83;;;12.00;99.90;;;;;;5017484;28;20022;-77
2023/02/15 12:32:48;;;;;;;;;;;12.30;99.90;;;;;;5017932;28;20397;-77
2023/02/15 12:35:33;;;;;;;37.42;14.98;;;12.50;99.90;;;;;;5032307;28;19960;-76
2023/02/15 12:38:25;;;;;;;37.38;16.13;;;12.50;99.90;;;;;;5016221;28;20125;-76
2023/02/15 12:41:03;;;;;;;36.78;17.63;;;12.60;99.90;;;;;;5015291;28;20042;-77
2023/02/15 12:43:38;;;;;;;33.72;15.40;;;12.90;99.90;;;;;;5015702;28;20072;-77
2023/02/15 12:46:20;;;;;;;61.10;17.70;;;13.00;99.90;;;;;;5015723;28;20440;-77
2023/02/15 12:48:46;;;;;;;38.00;16.77;;;13.10;99.90;;;;;;5016719;28;20026;-77
2023/02/15 12:51:15;;;;;;;40.08;17.27;;;13.30;99.90;;;;;;5016697;28;20137;-77
2023/02/15 12:53:41;;;;;;;38.45;16.90;;;13.40;99.90;;;;;;5016017;28;20056;-77
2023/02/15 12:56:10;;;;;;;34.80;15.70;;;13.60;99.90;;;;;;5015573;28;20388;-77
2023/02/15 12:58:36;;;;;;;34.03;16.98;;;13.60;99.90;;;;;;5016676;28;20109;-77
2023/02/15 13:01:21;;;;;;;39.45;17.08;;;13.60;99.90;;;;;;5016919;28;20397;-77
2023/02/15 13:03:58;;;;;;;36.33;17.13;;;13.50;99.90;;;;;;5016560;28;20061;-77
2023/02/15 13:06:25;;;;;;;39.72;16.58;;;13.50;99.90;;;;;;5015407;28;20428;-77
2023/02/15 13:08:54;;;;;;;39.65;16.73;;;13.40;99.90;;;;;;5016348;28;20485;-77
2023/02/15 13:11:34;;;;;;;35.15;16.55;;;13.40;99.90;;;;;;5015388;28;20045;-77
2023/02/15 13:14:02;;;;;;;44.13;17.58;;;13.40;99.90;;;;;;5016780;28;20022;-77
2023/02/15 13:16:37;;;;;;;36.15;17.45;;;13.30;99.90;;;;;;5015245;28;20033;-77
2023/02/15 13:19:16;;;;;;;41.03;17.33;;;13.20;99.90;;;;;;5015133;28;20397;-77
2023/02/15 13:21:46;;;;;;;34.75;16.05;;;13.10;99.90;;;;;;5014917;28;20116;-77
2023/02/15 13:24:20;;;;;;;34.13;15.68;;;13.10;99.90;;;;;;5014892;28;20030;-77
2023/02/15 13:26:47;;;;;;;35.13;17.27;;;13.20;99.90;;;;;;5016187;28;20397;-77
2023/02/15 13:29:27;;;;;;;37.53;17.25;;;13.40;99.90;;;;;;5016167;28;20030;-77